createdAt,value
2022-09-02T00:00:46.264Z,56.66
2022-09-02T00:01:46.331Z,56.46
2022-09-02T00:02:46.251Z,56.56
2022-09-02T00:03:46.150Z,57.17
2022-09-02T00:04:46.112Z,57.06
2022-09-02T00:05:46.078Z,56.76
2022-09-02T00:06:46.052Z,57.04
2022-09-02T00:07:46.005Z,56.56
2022-09-02T00:08:45.966Z,57.06
2022-09-02T00:09:45.930Z,57.17
2022-09-02T00:10:45.891Z,57.77
2022-09-02T00:11:45.851Z,56.96
2022-09-02T00:12:45.832Z,57.06
2022-09-02T00:13:45.779Z,57.26
2022-09-02T00:14:45.743Z,56.86
2022-09-02T00:15:45.714Z,56.96
2022-09-02T00:16:45.707Z,56.86
2022-09-02T00:17:45.633Z,57.97
2022-09-02T00:18:45.968Z,57.26
2022-09-02T00:19:45.554Z,58.07
2022-09-02T00:20:45.519Z,56.76
2022-09-02T00:21:45.481Z,56.84
2022-09-02T00:22:45.444Z,57.14
2022-09-02T00:23:45.408Z,57.77
2022-09-02T00:24:45.378Z,57.46
2022-09-02T00:25:45.332Z,57.77
2022-09-02T00:26:45.295Z,57.77
2022-09-02T00:27:45.258Z,57.06
2022-09-02T00:28:49.229Z,57.67
2022-09-02T00:29:45.207Z,57.77
2022-09-02T00:30:45.147Z,57.84
2022-09-02T00:31:45.188Z,56.66
2022-09-02T00:32:45.072Z,57.57
2022-09-02T00:33:45.034Z,58.14
2022-09-02T00:34:44.998Z,57.67
2022-09-02T00:35:44.974Z,58.27
2022-09-02T00:36:44.923Z,58.37
2022-09-02T00:37:44.888Z,58.57
2022-09-02T00:38:44.852Z,58.07
2022-09-02T00:39:44.813Z,58.57
2022-09-02T00:40:44.863Z,58.09
2022-09-02T00:41:44.737Z,58.80
2022-09-02T00:42:44.700Z,58.29
2022-09-02T00:43:44.661Z,58.60
2022-09-02T00:44:44.627Z,58.87
2022-09-02T00:45:44.610Z,58.47
2022-09-02T00:46:44.565Z,59.00
2022-09-02T00:47:44.516Z,57.90
2022-09-02T00:48:44.477Z,58.87
2022-09-02T00:49:44.449Z,59.17
2022-09-02T00:50:44.405Z,58.67
2022-09-02T00:51:44.365Z,58.37
2022-09-02T00:52:44.329Z,57.97
2022-09-02T00:53:44.291Z,58.87
2022-09-02T00:54:44.279Z,58.87
2022-09-02T00:55:44.216Z,59.08
2022-09-02T00:56:44.181Z,59.08
2022-09-02T00:57:44.144Z,58.97
2022-09-02T00:58:44.109Z,59.38
2022-09-02T00:59:44.067Z,58.87
2022-09-02T01:00:44.135Z,59.08
2022-09-02T01:01:44.122Z,58.90
2022-09-02T01:02:43.961Z,58.40
2022-09-02T01:03:43.928Z,59.30
2022-09-02T01:04:43.886Z,59.17
2022-09-02T01:05:43.992Z,58.97
2022-09-02T01:06:43.823Z,59.08
2022-09-02T01:07:43.770Z,58.87
2022-09-02T01:08:43.734Z,59.17
2022-09-02T01:09:43.699Z,58.50
2022-09-02T01:10:43.661Z,58.50
2022-09-02T01:11:43.619Z,59.20
2022-09-02T01:12:43.596Z,59.41
2022-09-02T01:13:43.557Z,59.50
2022-09-02T01:14:43.525Z,59.80
2022-09-02T01:15:43.472Z,59.41
2022-09-02T01:16:43.547Z,58.70
2022-09-02T01:17:43.410Z,59.30
2022-09-02T01:18:43.362Z,59.20
2022-09-02T01:19:43.324Z,59.50
2022-09-02T01:20:43.291Z,60.51
2022-09-02T01:21:43.285Z,60.21
2022-09-02T01:22:43.213Z,59.94
2022-09-02T01:23:43.176Z,60.24
2022-09-02T01:24:43.140Z,60.33
2022-09-02T01:25:43.101Z,60.33
2022-09-02T01:26:43.065Z,60.24
2022-09-02T01:27:43.035Z,60.33
2022-09-02T01:28:42.990Z,60.24
2022-09-02T01:29:42.952Z,60.44
2022-09-02T01:30:42.918Z,60.94
2022-09-02T01:31:42.970Z,59.83
2022-09-02T01:32:42.841Z,60.94
2022-09-02T01:33:42.815Z,60.74
2022-09-02T01:34:42.778Z,60.74
2022-09-02T01:35:42.729Z,60.11
2022-09-02T01:36:42.698Z,60.51
2022-09-02T01:37:42.655Z,59.91
2022-09-02T01:38:42.621Z,60.41
2022-09-02T01:39:42.590Z,59.30
2022-09-02T01:40:42.681Z,59.50
2022-09-02T01:41:42.505Z,60.11
2022-09-02T01:42:42.474Z,60.21
2022-09-02T01:43:42.430Z,60.41
2022-09-02T01:44:42.395Z,59.80
2022-09-02T01:45:42.373Z,59.50
2022-09-02T01:46:42.379Z,59.58
2022-09-02T01:47:42.283Z,59.17
2022-09-02T01:48:42.245Z,59.30
2022-09-02T01:49:42.207Z,59.70
2022-09-02T01:50:46.844Z,60.11
2022-09-02T01:51:42.147Z,59.30
2022-09-02T01:52:42.096Z,59.10
2022-09-02T01:53:42.069Z,58.77
2022-09-02T01:54:42.023Z,59.08
2022-09-02T01:55:41.983Z,59.10
2022-09-02T01:56:41.949Z,59.27
2022-09-02T01:57:41.910Z,59.47
2022-09-02T01:58:41.875Z,59.41
2022-09-02T01:59:41.849Z,59.60
2022-09-02T02:00:41.854Z,60.00
2022-09-02T02:01:41.818Z,59.50
2022-09-02T02:02:43.347Z,59.91
2022-09-02T02:03:41.688Z,59.50
2022-09-02T02:04:41.651Z,59.50
2022-09-02T02:05:41.619Z,59.60
2022-09-02T02:06:41.589Z,60.13
2022-09-02T02:07:41.537Z,59.70
2022-09-02T02:08:41.502Z,60.21
2022-09-02T02:09:41.464Z,60.31
2022-09-02T02:10:41.429Z,60.44
2022-09-02T02:11:41.389Z,60.13
2022-09-02T02:12:41.366Z,59.80
2022-09-02T02:13:41.318Z,60.24
2022-09-02T02:14:41.280Z,60.41
2022-09-02T02:15:41.252Z,60.24
2022-09-02T02:16:41.315Z,59.53
2022-09-02T02:17:41.171Z,60.74
2022-09-02T02:18:41.143Z,60.24
2022-09-02T02:19:41.089Z,61.04
2022-09-02T02:20:44.740Z,59.53
2022-09-02T02:21:41.024Z,59.10
2022-09-02T02:22:40.983Z,59.50
2022-09-02T02:23:40.940Z,59.50
2022-09-02T02:24:40.927Z,59.63
2022-09-02T02:25:40.868Z,60.00
2022-09-02T02:26:40.831Z,59.83
2022-09-02T02:27:40.790Z,60.33
2022-09-02T02:28:40.753Z,59.43
2022-09-02T02:29:40.717Z,60.64
2022-09-02T02:30:40.698Z,60.74
2022-09-02T02:31:40.666Z,60.94
2022-09-02T02:32:40.608Z,61.44
2022-09-02T02:33:40.569Z,61.04
2022-09-02T02:34:40.532Z,60.94
2022-09-02T02:35:40.516Z,60.36
2022-09-02T02:36:40.457Z,61.04
2022-09-02T02:37:40.419Z,61.85
2022-09-02T02:38:40.382Z,61.47
2022-09-02T02:39:40.343Z,60.36
2022-09-02T02:40:40.354Z,60.87
2022-09-02T02:41:40.282Z,60.87
2022-09-02T02:42:40.232Z,61.17
2022-09-02T02:43:40.194Z,61.47
2022-09-02T02:44:40.157Z,61.07
2022-09-02T02:45:40.119Z,60.67
2022-09-02T02:46:40.135Z,61.20
2022-09-02T02:47:40.056Z,61.40
2022-09-02T02:48:40.011Z,62.41
2022-09-02T02:49:39.970Z,60.89
2022-09-02T02:50:39.934Z,61.90
2022-09-02T02:51:39.897Z,61.00
2022-09-02T02:52:39.861Z,62.21
2022-09-02T02:53:39.837Z,61.80
2022-09-02T02:54:39.785Z,61.50
2022-09-02T02:55:39.746Z,62.21
2022-09-02T02:56:39.733Z,62.41
2022-09-02T02:57:39.675Z,62.10
2022-09-02T02:58:39.636Z,61.83
2022-09-02T02:59:39.607Z,62.44
2022-09-02T03:00:39.562Z,62.44
2022-09-02T03:01:39.614Z,61.73
2022-09-02T03:02:39.630Z,62.34
2022-09-02T03:03:39.445Z,62.01
2022-09-02T03:04:39.429Z,62.81
2022-09-02T03:05:39.386Z,62.51
2022-09-02T03:06:39.337Z,62.34
2022-09-02T03:07:39.296Z,62.44
2022-09-02T03:08:39.271Z,62.24
2022-09-02T03:09:39.226Z,62.13
2022-09-02T03:10:39.183Z,62.64
2022-09-02T03:11:39.146Z,63.37
2022-09-02T03:12:39.109Z,62.77
2022-09-02T03:13:39.072Z,66.09
2022-09-02T03:14:39.046Z,65.39
2022-09-02T03:15:39.073Z,64.72
2022-09-02T03:16:38.958Z,65.32
2022-09-02T03:17:38.924Z,65.52
2022-09-02T03:18:38.884Z,64.81
2022-09-02T03:19:38.848Z,65.05
2022-09-02T03:20:38.823Z,65.05
2022-09-02T03:21:39.444Z,65.35
2022-09-02T03:22:38.733Z,65.05
2022-09-02T03:23:38.698Z,65.35
2022-09-02T03:24:38.661Z,66.56
2022-09-02T03:25:38.635Z,66.76
2022-09-02T03:26:38.583Z,66.36
2022-09-02T03:27:38.547Z,67.47
2022-09-02T03:28:38.509Z,66.56
2022-09-02T03:29:38.471Z,67.10
2022-09-02T03:30:38.451Z,68.91
2022-09-02T03:31:38.456Z,66.39
2022-09-02T03:32:38.358Z,66.29
2022-09-02T03:33:38.322Z,66.08
2022-09-02T03:34:38.282Z,66.89
2022-09-02T03:35:38.245Z,66.69
2022-09-02T03:36:38.223Z,66.39
2022-09-02T03:37:38.172Z,65.38
2022-09-02T03:38:38.131Z,68.91
2022-09-02T03:39:38.099Z,66.79
2022-09-02T03:40:38.110Z,68.24
2022-09-02T03:41:38.021Z,66.59
2022-09-02T03:42:38.008Z,67.13
2022-09-02T03:43:37.947Z,66.82
2022-09-02T03:44:37.905Z,66.08
2022-09-02T03:45:37.901Z,67.19
2022-09-02T03:46:37.830Z,67.50
2022-09-02T03:47:37.791Z,68.91
2022-09-02T03:48:37.787Z,69.82
2022-09-02T03:49:37.718Z,70.53
2022-09-02T03:50:37.680Z,69.04
2022-09-02T03:51:37.643Z,70.86
2022-09-02T03:52:37.604Z,69.78
2022-09-02T03:53:37.571Z,69.78
2022-09-02T03:54:37.539Z,71.57
2022-09-02T03:55:37.493Z,70.69
2022-09-02T03:56:37.452Z,71.80
2022-09-02T03:57:37.420Z,72.81
2022-09-02T03:58:37.390Z,71.91
2022-09-02T03:59:37.353Z,71.84
2022-09-02T04:00:37.301Z,71.91
2022-09-02T04:01:37.291Z,73.25
2022-09-02T04:02:37.378Z,72.75
2022-09-02T04:03:37.189Z,72.85
2022-09-02T04:04:37.150Z,72.44
2022-09-02T04:05:37.127Z,73.66
2022-09-02T04:06:37.084Z,74.26
2022-09-02T04:07:37.041Z,72.85
2022-09-02T04:08:37.001Z,72.64
2022-09-02T04:09:36.963Z,74.06
2022-09-02T04:10:36.925Z,74.16
2022-09-02T04:11:36.898Z,74.50
2022-09-02T04:12:36.847Z,75.10
2022-09-02T04:13:36.830Z,73.39
2022-09-02T04:14:36.775Z,74.19
2022-09-02T04:15:36.802Z,74.90
2022-09-02T04:16:36.770Z,74.60
2022-09-02T04:17:36.669Z,73.79
2022-09-02T04:18:36.623Z,74.30
2022-09-02T04:19:36.583Z,75.01
2022-09-02T04:20:36.546Z,75.21
2022-09-02T04:21:36.507Z,75.71
2022-09-02T04:22:36.468Z,75.71
2022-09-02T04:23:36.442Z,75.71
2022-09-02T04:24:36.392Z,75.81
2022-09-02T04:25:36.355Z,76.05
2022-09-02T04:26:36.316Z,75.95
2022-09-02T04:27:36.279Z,76.56
2022-09-02T04:28:36.256Z,76.05
2022-09-02T04:29:36.204Z,76.93
2022-09-02T04:30:36.165Z,76.15
2022-09-02T04:31:36.162Z,76.05
2022-09-02T04:32:40.468Z,75.75
2022-09-02T04:33:36.051Z,75.61
2022-09-02T04:34:36.023Z,75.71
2022-09-02T04:35:35.975Z,75.51
2022-09-02T04:36:35.936Z,75.41
2022-09-02T04:37:35.899Z,76.02
2022-09-02T04:38:35.861Z,75.14
2022-09-02T04:39:35.822Z,75.41
2022-09-02T04:40:35.867Z,73.28
2022-09-02T04:41:35.753Z,73.39
2022-09-02T04:42:35.710Z,72.68
2022-09-02T04:43:35.672Z,71.57
2022-09-02T04:44:35.631Z,72.17
2022-09-02T04:45:35.598Z,73.69
2022-09-02T04:46:35.595Z,75.14
2022-09-02T04:47:35.518Z,72.38
2022-09-02T04:48:35.480Z,72.78
2022-09-02T04:49:35.441Z,74.70
2022-09-02T04:50:35.404Z,74.70
2022-09-02T04:51:35.364Z,73.28
2022-09-02T04:52:35.340Z,73.96
2022-09-02T04:53:35.732Z,74.10
2022-09-02T04:54:35.254Z,71.26
2022-09-02T04:55:35.211Z,71.33
2022-09-02T04:56:35.173Z,72.04
2022-09-02T04:57:35.136Z,71.33
2022-09-02T04:58:35.108Z,71.40
2022-09-02T04:59:35.065Z,69.98
2022-09-02T05:00:35.020Z,69.28
2022-09-02T05:01:35.028Z,69.89
2022-09-02T05:02:34.993Z,70.69
2022-09-02T05:03:34.909Z,69.04
2022-09-02T05:04:34.882Z,71.10
2022-09-02T05:05:34.837Z,71.67
2022-09-02T05:06:34.794Z,69.95
2022-09-02T05:07:44.009Z,68.64
2022-09-02T05:08:34.716Z,67.43
2022-09-02T05:09:34.678Z,69.75
2022-09-02T05:10:34.655Z,68.54
2022-09-02T05:11:34.604Z,67.70
2022-09-02T05:12:34.570Z,67.10
2022-09-02T05:13:34.528Z,66.89
2022-09-02T05:14:34.489Z,66.89
2022-09-02T05:15:34.527Z,66.49
2022-09-02T05:16:34.415Z,66.59
2022-09-02T05:17:34.379Z,66.66
2022-09-02T05:18:34.336Z,66.76
2022-09-02T05:19:34.368Z,66.36
2022-09-02T05:20:34.275Z,68.48
2022-09-02T05:21:34.244Z,67.30
2022-09-02T05:22:34.188Z,67.19
2022-09-02T05:23:34.148Z,68.41
2022-09-02T05:24:34.111Z,66.86
2022-09-02T05:25:34.073Z,65.95
2022-09-02T05:26:34.051Z,66.36
2022-09-02T05:27:34.019Z,65.72
2022-09-02T05:28:33.958Z,66.22
2022-09-02T05:29:33.923Z,65.52
2022-09-02T05:30:33.883Z,64.51
2022-09-02T05:31:33.894Z,65.19
2022-09-02T05:32:37.595Z,65.62
2022-09-02T05:33:33.785Z,65.59
2022-09-02T05:34:33.735Z,65.99
2022-09-02T05:35:33.696Z,65.59
2022-09-02T05:36:33.659Z,65.36
2022-09-02T05:37:33.632Z,65.86
2022-09-02T05:38:33.588Z,65.12
2022-09-02T05:39:33.542Z,64.15
2022-09-02T05:40:33.530Z,64.32
2022-09-02T05:41:33.481Z,65.12
2022-09-02T05:42:33.434Z,63.92
2022-09-02T05:43:33.407Z,63.42
2022-09-02T05:44:33.369Z,63.48
2022-09-02T05:45:33.320Z,62.15
2022-09-02T05:46:33.329Z,62.65
2022-09-02T05:47:33.248Z,62.89
2022-09-02T05:48:33.207Z,58.79
2022-09-02T05:49:33.184Z,57.93
2022-09-02T05:50:33.134Z,56.70
2022-09-02T05:51:33.098Z,57.39
2022-09-02T05:52:33.058Z,55.02
2022-09-02T05:53:33.037Z,51.62
2022-09-02T05:54:33.001Z,51.35
2022-09-02T05:55:32.949Z,49.21
2022-09-02T05:56:32.914Z,47.55
2022-09-02T05:57:32.876Z,48.00
2022-09-02T05:58:32.839Z,47.24
2022-09-02T05:59:32.804Z,45.90
2022-09-02T06:00:32.778Z,43.29
2022-09-02T06:01:32.792Z,42.96
2022-09-02T06:02:32.722Z,42.83
2022-09-02T06:03:32.663Z,42.20
2022-09-02T06:04:32.624Z,41.81
2022-09-02T06:05:32.601Z,41.93
2022-09-02T06:06:32.556Z,41.83
2022-09-02T06:07:32.524Z,44.09
2022-09-02T06:08:32.485Z,45.45
2022-09-02T06:09:32.452Z,48.66
2022-09-02T06:10:32.416Z,48.27
2022-09-02T06:11:32.396Z,47.83
2022-09-02T06:12:32.348Z,46.84
2022-09-02T06:13:32.317Z,45.01
2022-09-02T06:14:32.279Z,44.87
2022-09-02T06:15:32.322Z,43.47
2022-09-02T06:16:32.210Z,46.20
2022-09-02T06:17:32.206Z,44.84
2022-09-02T06:18:32.142Z,45.87
2022-09-02T06:19:32.110Z,45.28
2022-09-02T06:20:32.073Z,47.61
2022-09-02T06:21:32.039Z,46.34
2022-09-02T06:22:32.006Z,47.28
2022-09-02T06:23:31.986Z,46.61
2022-09-02T06:24:31.933Z,46.98
2022-09-02T06:25:31.906Z,46.89
2022-09-02T06:26:31.873Z,45.45
2022-09-02T06:27:31.837Z,45.93
2022-09-02T06:28:31.800Z,45.81
2022-09-02T06:29:31.783Z,44.46
2022-09-02T06:30:31.735Z,44.56
2022-09-02T06:31:34.423Z,42.82
2022-09-02T06:32:31.664Z,43.19
2022-09-02T06:33:31.632Z,44.61
2022-09-02T06:34:31.598Z,43.98
2022-09-02T06:35:31.578Z,46.27
2022-09-02T06:36:31.598Z,48.72
2022-09-02T06:37:31.498Z,49.66
2022-09-02T06:38:31.465Z,49.78
2022-09-02T06:39:31.434Z,51.52
2022-09-02T06:40:31.418Z,51.57
2022-09-02T06:41:31.365Z,52.84
2022-09-02T06:42:31.329Z,53.22
2022-09-02T06:43:41.334Z,54.04
2022-09-02T06:44:32.560Z,54.66
2022-09-02T06:45:31.230Z,54.79
2022-09-02T06:46:31.272Z,55.96
2022-09-02T06:47:31.160Z,54.57
2022-09-02T06:48:31.129Z,53.79
2022-09-02T06:49:31.100Z,54.09
2022-09-02T06:50:31.061Z,54.46
2022-09-02T06:51:31.027Z,54.04
2022-09-02T06:52:31.015Z,56.36
2022-09-02T06:53:30.957Z,54.41
2022-09-02T06:54:30.928Z,52.74
2022-09-02T06:55:30.891Z,50.68
2022-09-02T06:56:30.860Z,50.26
2022-09-02T06:57:33.858Z,51.05
2022-09-02T06:58:30.829Z,50.18
2022-09-02T06:59:30.757Z,50.48
2022-09-02T07:00:31.080Z,50.21
2022-09-02T07:01:30.746Z,48.25
2022-09-02T07:02:30.651Z,48.47
2022-09-02T07:03:30.616Z,49.63
2022-09-02T07:04:30.582Z,52.32
2022-09-02T07:05:30.560Z,53.79
2022-09-02T07:06:30.514Z,53.96
2022-09-02T07:07:30.479Z,53.64
2022-09-02T07:08:30.464Z,52.29
2022-09-02T07:09:30.413Z,53.46
2022-09-02T07:10:30.386Z,52.76
2022-09-02T07:11:30.343Z,52.49
2022-09-02T07:12:30.307Z,51.97
2022-09-02T07:13:30.276Z,52.29
2022-09-02T07:14:30.270Z,54.34
2022-09-02T07:15:30.204Z,53.74
2022-09-02T07:16:30.218Z,53.54
2022-09-02T07:17:30.137Z,53.89
2022-09-02T07:18:30.100Z,53.99
2022-09-02T07:19:30.067Z,53.29
2022-09-02T07:20:30.034Z,50.52
2022-09-02T07:21:29.998Z,52.54
2022-09-02T07:22:29.976Z,48.60
2022-09-02T07:23:29.930Z,50.65
2022-09-02T07:24:29.895Z,50.01
2022-09-02T07:25:29.893Z,47.24
2022-09-02T07:26:29.828Z,48.08
2022-09-02T07:27:29.796Z,49.76
2022-09-02T07:28:29.787Z,47.19
2022-09-02T07:29:29.727Z,49.88
2022-09-02T07:30:29.713Z,49.79
2022-09-02T07:31:29.659Z,47.71
2022-09-02T07:32:29.625Z,51.05
2022-09-02T07:33:29.596Z,50.06
2022-09-02T07:34:29.572Z,49.79
2022-09-02T07:35:29.557Z,48.62
2022-09-02T07:36:29.491Z,49.49
2022-09-02T07:37:29.454Z,48.05
2022-09-02T07:38:29.428Z,46.35
2022-09-02T07:39:29.389Z,47.75
2022-09-02T07:40:29.426Z,48.82
2022-09-02T07:41:29.321Z,48.85
2022-09-02T07:42:29.292Z,45.05
2022-09-02T07:43:29.258Z,44.40
2022-09-02T07:44:29.228Z,48.55
2022-09-02T07:45:29.213Z,46.31
2022-09-02T07:46:29.212Z,44.04
2022-09-02T07:47:29.122Z,46.62
2022-09-02T07:48:29.093Z,47.36
2022-09-02T07:49:29.075Z,50.06
2022-09-02T07:50:29.027Z,46.94
2022-09-02T07:51:30.824Z,48.40
2022-09-02T07:52:28.962Z,47.75
2022-09-02T07:53:28.930Z,49.44
2022-09-02T07:54:28.897Z,49.84
2022-09-02T07:55:28.861Z,47.14
2022-09-02T07:56:28.832Z,47.58
2022-09-02T07:57:28.816Z,50.03
2022-09-02T07:58:28.767Z,51.50
2022-09-02T07:59:28.738Z,51.52
2022-09-02T08:00:28.699Z,51.79
2022-09-02T08:01:28.765Z,53.84
2022-09-02T08:02:28.660Z,54.66
2022-09-02T08:03:28.611Z,54.99
2022-09-02T08:04:28.569Z,54.89
2022-09-02T08:05:28.537Z,56.51
2022-09-02T08:06:34.365Z,55.79
2022-09-02T08:07:28.472Z,56.29
2022-09-02T08:08:28.436Z,55.58
2022-09-02T08:09:28.424Z,56.36
2022-09-02T08:10:28.373Z,54.14
2022-09-02T08:11:28.336Z,51.67
2022-09-02T08:12:28.303Z,51.52
2022-09-02T08:13:28.392Z,51.17
2022-09-02T08:14:28.274Z,50.78
2022-09-02T08:15:28.216Z,47.93
2022-09-02T08:16:28.232Z,47.49
2022-09-02T08:17:28.135Z,46.26
2022-09-02T08:18:28.102Z,45.52
2022-09-02T08:19:28.068Z,44.02
2022-09-02T08:20:28.051Z,44.34
2022-09-02T08:21:28.006Z,44.70
2022-09-02T08:22:28.009Z,45.01
2022-09-02T08:23:37.202Z,47.29
2022-09-02T08:24:27.906Z,46.42
2022-09-02T08:25:27.870Z,47.37
2022-09-02T08:26:27.852Z,46.53
2022-09-02T08:27:27.809Z,47.34
2022-09-02T08:28:27.789Z,45.15
2022-09-02T08:29:27.742Z,45.49
2022-09-02T08:30:27.711Z,47.34
2022-09-02T08:31:27.731Z,48.10
2022-09-02T08:32:27.650Z,49.09
2022-09-02T08:33:27.613Z,48.45
2022-09-02T08:34:27.602Z,47.96
2022-09-02T08:35:27.549Z,48.15
2022-09-02T08:36:27.520Z,47.46
2022-09-02T08:37:27.495Z,47.31
2022-09-02T08:38:27.456Z,46.67
2022-09-02T08:39:27.428Z,46.23
2022-09-02T08:40:27.442Z,46.04
2022-09-02T08:41:27.359Z,46.26
2022-09-02T08:42:27.333Z,46.85
2022-09-02T08:43:27.298Z,44.73
2022-09-02T08:44:27.266Z,45.67
2022-09-02T08:45:27.286Z,43.98
2022-09-02T08:46:27.237Z,45.72
2022-09-02T08:47:27.169Z,46.58
2022-09-02T08:48:27.179Z,47.56
2022-09-02T08:49:27.106Z,47.44
2022-09-02T08:50:27.084Z,44.40
2022-09-02T08:51:27.051Z,45.93
2022-09-02T08:52:27.010Z,47.61
2022-09-02T08:53:26.986Z,47.69
2022-09-02T08:54:26.962Z,47.39
2022-09-02T08:55:26.915Z,46.52
2022-09-02T08:56:26.886Z,45.75
2022-09-02T08:57:26.854Z,45.93
2022-09-02T08:58:26.823Z,49.05
2022-09-02T08:59:26.873Z,48.33
2022-09-02T09:00:26.776Z,47.80
2022-09-02T09:01:26.759Z,49.11
2022-09-02T09:02:26.737Z,49.29
2022-09-02T09:03:26.663Z,49.15
2022-09-02T09:04:26.637Z,48.72
2022-09-02T09:05:26.601Z,46.40
2022-09-02T09:06:26.594Z,46.50
2022-09-02T09:07:26.568Z,45.49
2022-09-02T09:08:26.590Z,44.95
2022-09-02T09:09:26.473Z,45.52
2022-09-02T09:10:26.446Z,44.32
2022-09-02T09:11:26.410Z,44.71
2022-09-02T09:12:26.392Z,45.65
2022-09-02T09:13:26.356Z,44.11
2022-09-02T09:14:26.321Z,43.93
2022-09-02T09:15:26.285Z,42.42
2022-09-02T09:16:26.293Z,45.42
2022-09-02T09:17:28.033Z,44.34
2022-09-02T09:18:26.196Z,46.16
2022-09-02T09:19:26.162Z,47.15
2022-09-02T09:20:26.157Z,45.25
2022-09-02T09:22:26.084Z,44.42
2022-09-02T09:23:26.355Z,43.17
2022-09-02T09:24:26.009Z,45.54
2022-09-02T09:25:25.978Z,43.23
2022-09-02T09:26:25.947Z,44.42
2022-09-02T09:27:25.933Z,44.24
2022-09-02T09:28:25.886Z,42.74
2022-09-02T09:29:25.857Z,43.13
2022-09-02T09:30:25.860Z,44.61
2022-09-02T09:31:25.819Z,44.57
2022-09-02T09:32:25.764Z,42.40
2022-09-02T09:33:25.747Z,42.46
2022-09-02T09:34:25.705Z,42.71
2022-09-02T09:35:25.670Z,40.96
2022-09-02T09:36:25.643Z,42.54
2022-09-02T09:37:25.613Z,41.86
2022-09-02T09:38:25.586Z,42.68
2022-09-02T09:39:25.597Z,40.78
2022-09-02T09:40:25.558Z,41.49
2022-09-02T09:41:25.492Z,43.49
2022-09-02T09:42:25.462Z,46.08
2022-09-02T09:43:25.545Z,44.93
2022-09-02T09:44:25.402Z,44.22
2022-09-02T09:45:25.421Z,41.85
2022-09-02T09:46:25.344Z,42.82
2022-09-02T09:47:25.311Z,44.00
2022-09-02T09:48:25.283Z,42.32
2022-09-02T09:49:25.253Z,44.49
2022-09-02T09:50:25.231Z,44.20
2022-09-02T09:51:25.189Z,42.91
2022-09-02T09:52:25.163Z,42.99
2022-09-02T09:53:25.128Z,41.30
2022-09-02T09:54:25.105Z,42.10
2022-09-02T09:55:25.583Z,42.60
2022-09-02T09:56:25.056Z,42.30
2022-09-02T09:57:25.021Z,42.44
2022-09-02T09:58:24.986Z,44.51
2022-09-02T09:59:24.950Z,41.59
2022-09-02T10:00:24.925Z,41.63
2022-09-02T10:01:25.014Z,42.44
2022-09-02T10:02:24.988Z,42.46
2022-09-02T10:03:24.913Z,44.06
2022-09-02T10:04:41.690Z,42.56
2022-09-02T10:05:24.766Z,41.69
2022-09-02T10:06:24.753Z,41.52
2022-09-02T10:07:24.708Z,43.17
2022-09-02T10:08:24.691Z,42.46
2022-09-02T10:09:24.651Z,41.38
2022-09-02T10:10:24.618Z,42.46
2022-09-02T10:11:24.583Z,42.13
2022-09-02T10:12:24.556Z,40.64
2022-09-02T10:13:24.523Z,40.43
2022-09-02T10:14:26.537Z,42.08
2022-09-02T10:15:24.460Z,40.69
2022-09-02T10:16:24.941Z,41.38
2022-09-02T10:17:24.400Z,39.97
2022-09-02T10:18:24.438Z,41.25
2022-09-02T10:19:24.351Z,39.47
2022-09-02T10:20:24.311Z,39.17
2022-09-02T10:21:24.333Z,37.59
2022-09-02T10:22:24.251Z,35.03
2022-09-02T10:23:24.216Z,37.26
2022-09-02T10:24:24.190Z,37.74
2022-09-02T10:25:25.126Z,37.74
2022-09-02T10:27:24.092Z,37.20
2022-09-02T10:28:24.242Z,38.38
2022-09-02T10:29:24.033Z,38.22
2022-09-02T10:30:24.000Z,38.96
2022-09-02T10:31:24.012Z,36.80
2022-09-02T10:32:24.683Z,37.43
2022-09-02T10:33:24.295Z,38.82
2022-09-02T10:34:23.877Z,40.66
2022-09-02T10:35:23.845Z,41.12
2022-09-02T10:36:25.494Z,41.83
2022-09-02T10:37:24.760Z,41.36
2022-09-02T10:38:23.868Z,44.25
2022-09-02T10:39:24.015Z,41.85
2022-09-02T10:40:25.355Z,42.52
2022-09-02T10:41:23.848Z,41.26
2022-09-02T10:42:23.884Z,41.33
2022-09-02T10:43:23.769Z,40.98
2022-09-02T10:44:23.690Z,37.66
2022-09-02T10:45:26.100Z,37.74
2022-09-02T10:46:24.205Z,38.89
2022-09-02T10:47:30.057Z,38.69
2022-09-02T10:48:24.623Z,36.99
2022-09-02T10:49:23.530Z,36.98
2022-09-02T10:50:23.396Z,36.76
2022-09-02T10:51:23.567Z,36.84
2022-09-02T10:52:23.311Z,36.17
2022-09-02T10:53:23.649Z,35.66
2022-09-02T10:54:23.671Z,35.48
2022-09-02T10:55:23.232Z,35.88
2022-09-02T10:56:23.206Z,36.68
2022-09-02T10:57:23.189Z,37.65
2022-09-02T10:58:23.580Z,36.74
2022-09-02T10:59:23.083Z,37.63
2022-09-02T11:00:24.239Z,36.86
2022-09-02T11:01:23.257Z,37.68
2022-09-02T11:02:23.181Z,39.48
2022-09-02T11:03:23.540Z,38.29
2022-09-02T11:04:25.382Z,39.43
2022-09-02T11:05:22.920Z,40.05
2022-09-02T11:06:23.068Z,39.89
2022-09-02T11:07:22.839Z,41.22
2022-09-02T11:08:22.990Z,42.60
2022-09-02T11:09:23.004Z,40.92
2022-09-02T11:10:22.755Z,41.71
2022-09-02T11:11:22.867Z,41.14
2022-09-02T11:12:22.680Z,42.43
2022-09-02T11:13:23.740Z,41.20
2022-09-02T11:14:22.658Z,42.27
2022-09-02T11:15:22.597Z,40.17
2022-09-02T11:16:22.979Z,41.28
2022-09-02T11:17:22.552Z,40.39
2022-09-02T11:18:22.491Z,39.50
2022-09-02T11:19:22.525Z,41.10
2022-09-02T11:20:22.443Z,42.80
2022-09-02T11:21:22.492Z,41.41
2022-09-02T11:22:25.523Z,41.12
2022-09-02T11:23:22.534Z,41.12
2022-09-02T11:24:22.299Z,41.16
2022-09-02T11:25:22.478Z,41.66
2022-09-02T11:26:22.339Z,41.46
2022-09-02T11:27:32.435Z,42.55
2022-09-02T11:28:22.876Z,42.74
2022-09-02T11:29:22.586Z,42.35
2022-09-02T11:30:22.410Z,41.95
2022-09-02T11:31:22.539Z,42.66
2022-09-02T11:32:22.776Z,43.24
2022-09-02T11:33:22.105Z,41.66
2022-09-02T11:34:22.109Z,41.85
2022-09-02T11:35:22.082Z,41.95
2022-09-02T11:36:21.984Z,42.65
2022-09-02T11:37:21.891Z,44.63
2022-09-02T11:38:22.503Z,43.12
2022-09-02T11:39:35.977Z,43.22
2022-09-02T11:40:34.226Z,42.72
2022-09-02T11:41:37.914Z,42.63
2022-09-02T11:42:21.986Z,42.23
2022-09-02T11:43:22.246Z,44.59
2022-09-02T11:44:21.715Z,42.80
2022-09-02T11:45:22.662Z,42.41
2022-09-02T11:46:22.225Z,42.21
2022-09-02T11:47:21.776Z,41.81
2022-09-02T11:48:21.662Z,41.75
2022-09-02T11:49:27.836Z,41.44
2022-09-02T11:50:22.398Z,41.31
2022-09-02T11:51:23.069Z,42.31
2022-09-02T11:53:21.628Z,41.55
2022-09-02T11:54:21.809Z,42.25
2022-09-02T11:55:21.544Z,42.13
2022-09-02T11:56:21.411Z,42.43
2022-09-02T11:57:21.316Z,41.75
2022-09-02T11:58:21.271Z,42.27
2022-09-02T11:59:21.262Z,42.77
2022-09-02T12:00:22.166Z,42.77
2022-09-02T12:01:25.775Z,41.85
2022-09-02T12:02:21.219Z,42.47
2022-09-02T12:03:40.323Z,41.67
2022-09-02T12:05:21.308Z,41.87
2022-09-02T12:06:22.897Z,43.16
2022-09-02T12:07:26.407Z,41.28
2022-09-02T12:08:22.928Z,41.58
2022-09-02T12:09:22.522Z,43.04
2022-09-02T12:10:21.646Z,43.82
2022-09-02T12:11:20.990Z,41.12
2022-09-02T12:12:21.507Z,43.48
2022-09-02T12:13:20.881Z,42.57
2022-09-02T12:14:21.845Z,41.55
2022-09-02T12:15:21.184Z,41.24
2022-09-02T12:16:21.002Z,39.34
2022-09-02T12:17:20.785Z,38.94
2022-09-02T12:18:23.376Z,40.92
2022-09-02T12:19:20.823Z,40.15
2022-09-02T12:20:20.485Z,40.78
2022-09-02T12:21:23.195Z,41.20
2022-09-02T12:22:20.757Z,42.31
2022-09-02T12:23:20.579Z,43.10
2022-09-02T12:24:20.537Z,42.63
2022-09-02T12:25:21.374Z,41.55
2022-09-02T12:26:20.484Z,41.47
2022-09-02T12:27:21.298Z,42.66
2022-09-02T12:28:21.790Z,41.67
2022-09-02T12:29:21.656Z,43.28
2022-09-02T12:30:20.555Z,42.96
2022-09-02T12:31:22.688Z,43.46
2022-09-02T12:32:20.280Z,42.69
2022-09-02T12:33:22.744Z,42.96
2022-09-02T12:34:20.579Z,42.79
2022-09-02T12:35:20.144Z,42.80
2022-09-02T12:36:20.159Z,43.60
2022-09-02T12:37:20.099Z,41.91
2022-09-02T12:38:20.169Z,44.10
2022-09-02T12:39:19.897Z,43.38
2022-09-02T12:40:20.823Z,42.79
2022-09-02T12:41:20.384Z,43.08
2022-09-02T12:42:20.048Z,43.28
2022-09-02T12:43:19.803Z,43.70
2022-09-02T12:44:21.667Z,44.48
2022-09-02T12:45:19.984Z,42.86
2022-09-02T12:46:20.061Z,43.93
2022-09-02T12:47:20.071Z,42.55
2022-09-02T12:48:36.483Z,42.07
2022-09-02T12:49:20.058Z,41.77
2022-09-02T12:50:19.811Z,41.97
2022-09-02T12:51:19.801Z,41.79
2022-09-02T12:52:20.455Z,41.89
2022-09-02T12:53:21.062Z,42.39
2022-09-02T12:54:19.531Z,42.49
2022-09-02T12:55:19.592Z,41.39
2022-09-02T12:56:20.435Z,41.69